首页
METAR-TAF:

METAR-TAF

机场 :

太原, 中华人民共和国

太原武宿国际机场

纬度: 37-47N, 经度: 112-33E, 海拔: 779米

当前天气观测

该预报发布于12分钟前的05:30 UTC
风速4节,风向南转西南,在南转南东西转西北之间变化
温度 11°C
湿度 19%
气压 1019 hPa
能見度: 7000

METAR: ZBYN 250530Z 20002MPS 150V290 7000 NSC 11/M12 Q1019 NOSIG

时间: 13:42 (05:42 UTC)

预报

该预报发布于2小时和35分钟前的03:07 UTC
预报有效从25日的 06点(UTC)到 26日的 06点(UTC)
风速8节,风向
能見度: 5000

TAF: ZBYN 250307Z 2506/2606 09004MPS 5000 HZ NSC TX12/2507Z TNM08/22Z

超过4000个机场的气象观测和天气预报(METAR&TAF报告)。

可查询的气象台以黄色和红色小点在地图上表示。

将鼠标移到小点上方,可查看气象台名称。

然后点击查看天气观测和预报。

如需切换地图:点击带黑十字的绿色按钮放大地图;点击带横线的绿色按钮缩小地图;或者点击绿色箭头查看邻近地区的地图。


METAR-TAF: